createdAt,value
2022-08-21T00:03:22.581Z,0
2022-08-21T00:08:34.705Z,0.005
2022-08-21T00:13:47.349Z,0.01
2022-08-21T00:19:00.224Z,-0.037
2022-08-21T00:24:13.260Z,-0.03
2022-08-21T00:29:26.000Z,-0.021
2022-08-21T00:34:38.996Z,-0.024
2022-08-21T00:39:51.811Z,-0.022
2022-08-21T00:45:04.824Z,-0.021
2022-08-21T00:50:21.421Z,-0.04
2022-08-21T00:55:34.891Z,-0.019
2022-08-21T01:00:48.455Z,-0.033
2022-08-21T01:06:01.437Z,-0.046
2022-08-21T01:11:14.221Z,-0.03
2022-08-21T01:16:27.054Z,-0.039
2022-08-21T01:21:39.943Z,-0.044
2022-08-21T01:26:52.945Z,-0.034
2022-08-21T01:32:05.689Z,-0.031
2022-08-21T01:37:18.510Z,-0.038
2022-08-21T01:42:31.264Z,-0.041
2022-08-21T02:18:49.111Z,-0.048
2022-08-21T02:29:12.688Z,-0.045
2022-08-21T02:34:29.235Z,-0.048
2022-08-21T02:39:42.168Z,-0.043
2022-08-21T02:44:55.074Z,-0.041
2022-08-21T02:50:07.954Z,-0.036
2022-08-21T02:55:20.704Z,-0.044
2022-08-21T03:10:55.297Z,-0.045
2022-08-21T03:21:19.092Z,-0.043
2022-08-21T03:26:32.002Z,-0.043
2022-08-21T05:30:56.236Z,-0.049
2022-08-21T05:36:09.852Z,-0.03
2022-08-21T05:41:22.806Z,-0.042
2022-08-21T05:46:35.919Z,-0.037
2022-08-21T05:51:48.833Z,-0.044
2022-08-21T05:57:01.953Z,-0.035
2022-08-21T06:02:15.019Z,-0.022
2022-08-21T06:07:27.104Z,0.005
2022-08-21T06:12:39.566Z,0.065
2022-08-21T06:17:54.122Z,0.075
2022-08-21T06:23:06.423Z,0.092
2022-08-21T06:28:18.660Z,0.074
2022-08-21T06:33:32.905Z,0.116
2022-08-21T06:38:50.949Z,0.085
2022-08-21T06:44:04.207Z,0.135
2022-08-21T06:49:21.330Z,0.087
2022-08-21T06:54:38.813Z,0.129
2022-08-21T06:59:51.876Z,0.129
2022-08-21T07:05:07.757Z,0.119
2022-08-21T07:10:28.884Z,0.106
2022-08-21T07:15:41.157Z,0.098
2022-08-21T07:20:54.615Z,0.136
2022-08-21T07:26:07.303Z,0.094
2022-08-21T07:31:20.705Z,0.133
2022-08-21T07:36:33.472Z,0.088
2022-08-21T07:41:47.798Z,0.128
2022-08-21T07:47:00.304Z,0.09
2022-08-21T07:52:13.787Z,0.154
2022-08-21T07:57:27.439Z,0.119
2022-08-21T08:02:40.925Z,0.119
2022-08-21T08:07:54.272Z,0.138
2022-08-21T08:13:10.315Z,0.139
2022-08-21T08:18:23.155Z,0.153
2022-08-21T08:23:36.656Z,0.16
2022-08-21T08:28:49.256Z,0.149
2022-08-21T08:34:01.956Z,0.184
2022-08-21T08:39:26.691Z,0.173
2022-08-21T08:44:40.047Z,0.16
2022-08-21T08:49:52.503Z,0.157
2022-08-21T08:55:05.123Z,0.154
2022-08-21T09:00:17.837Z,0.11
2022-08-21T09:05:30.464Z,0.158
2022-08-21T09:10:42.837Z,0.171
2022-08-21T09:15:55.496Z,0.144
2022-08-21T09:21:08.038Z,0.15
2022-08-21T09:26:20.900Z,0.152
2022-08-21T09:31:34.244Z,0.193
2022-08-21T09:42:09.409Z,0.116
2022-08-21T09:47:26.291Z,0.089
2022-08-21T09:52:41.475Z,0.125
2022-08-21T09:57:54.154Z,0.12
2022-08-21T10:03:06.744Z,0.025
2022-08-21T10:08:19.494Z,0.197
2022-08-21T10:13:32.321Z,0.182
2022-08-21T10:18:45.124Z,0.178
2022-08-21T10:23:57.899Z,0.144
2022-08-21T10:29:10.836Z,0.17
2022-08-21T10:34:23.967Z,0.154
2022-08-21T10:39:37.192Z,0.126
2022-08-21T10:44:50.066Z,0.083
2022-08-21T10:50:02.801Z,0.148
2022-08-21T10:55:15.473Z,0.092
2022-08-21T11:00:27.972Z,0.03
2022-08-21T11:05:40.465Z,0.177
2022-08-21T11:10:58.146Z,0.091
2022-08-21T11:16:17.492Z,0.142
2022-08-21T11:21:29.753Z,0.097
2022-08-21T11:26:42.393Z,0.28
2022-08-21T11:31:55.403Z,0.325
2022-08-21T11:37:08.603Z,0.265
2022-08-21T11:47:31.899Z,0.236
2022-08-21T11:52:44.901Z,0.296
2022-08-21T11:57:57.835Z,0.3
2022-08-21T12:03:10.981Z,0.154
2022-08-21T12:24:06.883Z,0.261
2022-08-21T12:29:20.168Z,0.153
2022-08-21T12:44:54.283Z,0.114
2022-08-21T12:50:06.849Z,0.155
2022-08-21T12:55:19.327Z,0.004
2022-08-21T13:00:31.822Z,0.375
2022-08-21T13:05:44.997Z,-0.039
2022-08-21T13:10:57.947Z,0.114
2022-08-21T13:16:23.499Z,0.081
2022-08-21T13:21:37.039Z,0.124
2022-08-21T13:26:49.668Z,0.177
2022-08-21T13:32:02.180Z,0.115
2022-08-21T13:37:14.753Z,-0.039
2022-08-21T13:52:51.061Z,0.027
2022-08-21T13:58:03.813Z,0.059
2022-08-21T14:03:16.386Z,0.036
2022-08-21T14:08:30.121Z,0.079
2022-08-21T14:13:42.767Z,-0.028
2022-08-21T14:24:05.398Z,-0.032
2022-08-21T14:29:17.978Z,0.07
2022-08-21T14:34:34.171Z,0.032
2022-08-21T14:39:49.544Z,0.025
2022-08-21T14:45:02.104Z,0.071
2022-08-21T14:50:14.793Z,0.093
2022-08-21T14:55:27.272Z,0.076
2022-08-21T15:00:39.966Z,0.123
2022-08-21T15:05:52.565Z,-0.02
2022-08-21T15:11:15.385Z,0.037
2022-08-21T15:27:23.985Z,0.012
2022-08-21T15:32:36.236Z,-0.042
2022-08-21T15:42:58.760Z,0.025
2022-08-21T15:48:11.775Z,0.025
2022-08-21T15:53:24.345Z,0.018
2022-08-21T15:58:36.559Z,0.027
2022-08-21T16:03:49.014Z,-0.025
2022-08-21T16:09:01.275Z,0.053
2022-08-21T16:14:13.466Z,-0.002
2022-08-21T16:19:25.837Z,0.044
2022-08-21T16:24:37.997Z,0.062
2022-08-21T16:29:52.607Z,0.063
2022-08-21T16:35:04.900Z,-0.001
2022-08-21T16:40:17.505Z,-0.035
2022-08-21T16:45:33.144Z,0.005
2022-08-21T16:50:47.952Z,0.068
2022-08-21T16:56:07.491Z,0.033
2022-08-21T17:01:19.789Z,0.017
2022-08-21T17:06:32.548Z,0.04
2022-08-21T17:11:44.969Z,0.007
2022-08-21T17:16:57.417Z,-0.047
2022-08-21T17:22:09.759Z,-0.009
2022-08-21T17:37:42.218Z,0.048
2022-08-21T17:42:54.320Z,0.028
2022-08-21T17:48:06.578Z,0.003
2022-08-21T17:58:28.738Z,-0.009
2022-08-21T18:03:40.771Z,-0.032
2022-08-21T18:08:52.934Z,0.011
2022-08-21T18:14:07.532Z,0.012
2022-08-21T18:19:19.501Z,0.037
2022-08-21T18:24:31.612Z,0.021
2022-08-21T18:29:43.838Z,0.004
2022-08-21T18:34:59.017Z,-0.01
2022-08-21T18:40:11.110Z,0.018
2022-08-21T18:45:23.562Z,0.002
2022-08-21T18:50:35.658Z,-0.011
2022-08-21T18:55:47.998Z,0.043
2022-08-21T19:01:04.079Z,0.031
2022-08-21T19:06:21.849Z,0.027
2022-08-21T19:11:35.024Z,0.018
2022-08-21T19:16:47.692Z,0.022
2022-08-21T19:22:00.078Z,0.026
2022-08-21T19:27:13.392Z,0.029
2022-08-21T19:32:26.331Z,0.018
2022-08-21T19:37:39.556Z,0.039
2022-08-21T19:42:53.722Z,0.016
2022-08-21T19:48:06.266Z,0.027
2022-08-21T19:53:19.019Z,-0.01
2022-08-21T19:58:31.411Z,0.045
2022-08-21T20:03:43.909Z,0.03
2022-08-21T20:09:07.678Z,0.027
2022-08-21T20:14:20.077Z,-0.005
2022-08-21T20:19:32.600Z,0.041
2022-08-21T20:24:45.663Z,0.022
2022-08-21T20:29:58.537Z,0.007
2022-08-21T20:35:12.309Z,0.025
2022-08-21T20:40:32.488Z,0.022
2022-08-21T20:45:44.949Z,0.027
2022-08-21T20:50:57.327Z,0.024
2022-08-21T20:56:14.191Z,0.008
2022-08-21T21:01:32.628Z,0.019
2022-08-21T21:06:45.131Z,0.012
2022-08-21T21:12:08.529Z,0.011
2022-08-21T21:17:25.509Z,0.006
2022-08-21T21:22:41.298Z,0.007
2022-08-21T21:27:55.010Z,0.024
2022-08-21T21:33:07.927Z,0.015
2022-08-21T21:38:21.371Z,0.018
2022-08-21T21:43:34.127Z,0.002
2022-08-21T21:48:47.506Z,0.018
2022-08-21T21:54:00.107Z,0.009
2022-08-21T21:59:12.720Z,0.019
2022-08-21T22:04:28.337Z,-0.023
2022-08-21T22:09:41.335Z,0.028
2022-08-21T22:14:55.266Z,0.019
2022-08-21T22:20:07.852Z,0.023
2022-08-21T22:25:28.602Z,0.013
2022-08-21T22:30:41.295Z,0.013
2022-08-21T22:31:18.378Z,-0.003
2022-08-21T22:36:30.807Z,-0.009
2022-08-21T22:41:43.165Z,0.002
2022-08-21T22:46:57.133Z,0.002
2022-08-21T22:52:10.596Z,0.003
2022-08-21T22:57:22.836Z,0
2022-08-21T23:02:37.437Z,0.012
2022-08-21T23:07:50.259Z,-0.024
2022-08-21T23:13:02.956Z,0.012
2022-08-21T23:18:22.259Z,0.009
2022-08-21T23:23:36.219Z,-0.004
2022-08-21T23:28:48.927Z,-0.016
2022-08-21T23:34:06.064Z,0.011
2022-08-21T23:39:18.889Z,0
2022-08-21T23:44:31.783Z,-0.039
2022-08-21T23:49:44.883Z,0.013
2022-08-21T23:54:56.983Z,-0.007
